Main page
METAR-TAF:

METAR-TAF

Airports :

Šiauliai International Airport

Šiauliai, Lithuania

latitude: 55-53-38N, longitude: 023-23-42E, elevation: 135 m

Current weather observation

The report was made 17 minutes ago, at 08:50 UTC
Wind 10 kt from the West, varying between Southwest and West
Temperature 21°C
Humidity 78%
Pressure 1009 hPa
Visibility 10 km or more
Scattered clouds at a height of 1400 ft
Broken clouds at a height of 2300 ft

METAR: EYSA 150850Z 26010KT 220V280 9999 SCT014 BKN023 21/17 Q1009 GRN TEMPO SCT020 WHT

Time: 12:07 (09:07 UTC)

Forecast

The report was made 1 hour and 5 minutes ago, at 08:02 UTC
Forecast valid from 15 at 09 UTC to 15 at 18 UTC
Wind 15 kt from the West
Visibility: 9000 m
Broken clouds at a height of 2000 ft
Temporary
from 15 at 09 UTC to 15 at 15 UTC
Broken clouds at a height of 1500 ft, Cumulonimbus.
rain showers

TAF: EYSA 150802Z 1509/1518 26015KT 9000 BKN020 TEMPO 1509/1515 SHRA BKN015CB

Weather observations and forecasts of more than 4000 airports (METAR and TAF reports).

The available stations are represented by yellow and red dots on the map.

Hover mouse over dot to see the name of the station.

Then click to see weather observations and forecasts.

To change the map : click on the green buttons with a black cross to zoom in, on the green button with a dash to zoom out, or on the green arrows for adjacent maps.


METAR-TAF: